createdAt,value
2023-02-04T00:00:10.519Z,946.05
2023-02-04T00:01:11.449Z,946.05
2023-02-04T00:02:11.681Z,946.23
2023-02-04T00:03:11.962Z,946.14
2023-02-04T00:04:12.181Z,946.16
2023-02-04T00:05:12.663Z,946.21
2023-02-04T00:06:13.739Z,946.11
2023-02-04T00:07:14.313Z,946.06
2023-02-04T00:08:14.936Z,946.1
2023-02-04T00:09:15.154Z,946.1
2023-02-04T00:10:15.394Z,946.01
2023-02-04T00:11:15.741Z,946.05
2023-02-04T00:12:15.962Z,945.97
2023-02-04T00:13:16.525Z,945.97
2023-02-04T00:14:16.726Z,945.97
2023-02-04T00:15:17.659Z,946.04
2023-02-04T00:16:18.605Z,945.91
2023-02-04T00:17:19.467Z,946.03
2023-02-04T00:18:21.342Z,945.95
2023-02-04T00:19:20.213Z,946.08
2023-02-04T00:20:21.138Z,946.04
2023-02-04T00:21:22.002Z,946.01
2023-02-04T00:22:22.621Z,946.12
2023-02-04T00:23:22.908Z,946.06
2023-02-04T00:24:23.518Z,946.01
2023-02-04T00:25:24.024Z,946.02
2023-02-04T00:26:24.686Z,946.05
2023-02-04T00:27:25.722Z,946.05
2023-02-04T00:28:26.392Z,946
2023-02-04T00:29:26.641Z,946.05
2023-02-04T00:30:27.580Z,946.07
2023-02-04T00:31:28.333Z,945.97
2023-02-04T00:32:28.485Z,945.98
2023-02-04T00:33:28.680Z,946.02
2023-02-04T00:34:28.872Z,945.94
2023-02-04T00:35:29.779Z,946.02
2023-02-04T00:36:30.732Z,945.99
2023-02-04T00:37:31.765Z,946.03
2023-02-04T00:38:32.391Z,946
2023-02-04T00:39:33.306Z,945.99
2023-02-04T00:40:33.520Z,945.99
2023-02-04T00:41:34.441Z,946.04
2023-02-04T00:42:35.112Z,945.95
2023-02-04T00:43:35.742Z,945.96
2023-02-04T00:44:36.760Z,945.86
2023-02-04T00:45:37.031Z,946.11
2023-02-04T00:46:37.326Z,946.07
2023-02-04T00:47:38.372Z,946.11
2023-02-04T00:48:38.561Z,946.05
2023-02-04T00:49:38.775Z,946.08
2023-02-04T00:50:39.728Z,946.08
2023-02-04T00:51:40.672Z,946.1
2023-02-04T00:52:41.185Z,946.17
2023-02-04T00:53:41.396Z,946.14
2023-02-04T00:54:41.731Z,946.15
2023-02-04T00:55:42.088Z,946.1
2023-02-04T00:56:43.052Z,946.24
2023-02-04T00:57:43.815Z,946.1
2023-02-04T00:58:44.377Z,946.19
2023-02-04T00:59:44.574Z,946.18
2023-02-04T01:00:45.610Z,946.27
2023-02-04T01:01:46.622Z,946.34
2023-02-04T01:02:46.924Z,946.18
2023-02-04T01:03:47.727Z,946.25
2023-02-04T01:04:47.937Z,946.46
2023-02-04T01:05:48.296Z,946.41
2023-02-04T01:06:48.523Z,946.43
2023-02-04T01:07:49.388Z,946.46
2023-02-04T01:08:50.137Z,946.43
2023-02-04T01:09:51.046Z,946.36
2023-02-04T01:10:51.965Z,946.32
2023-02-04T01:11:52.594Z,946.4
2023-02-04T01:12:52.805Z,946.29
2023-02-04T01:13:53.374Z,946.38
2023-02-04T01:14:53.882Z,946.41
2023-02-04T01:15:54.380Z,946.38
2023-02-04T01:16:54.852Z,946.43
2023-02-04T01:17:55.618Z,946.42
2023-02-04T01:18:56.529Z,946.41
2023-02-04T01:19:57.024Z,946.56
2023-02-04T01:20:57.254Z,946.54
2023-02-04T01:21:58.189Z,946.49
2023-02-04T01:22:58.399Z,946.47
2023-02-04T01:23:58.605Z,946.5
2023-02-04T01:24:59.518Z,946.5
2023-02-04T01:26:00.195Z,946.41
2023-02-04T01:27:00.385Z,946.54
2023-02-04T01:28:01.300Z,946.54
2023-02-04T01:29:02.185Z,946.51
2023-02-04T01:30:03.105Z,946.64
2023-02-04T01:31:03.704Z,946.52
2023-02-04T01:32:04.465Z,946.54
2023-02-04T01:33:05.398Z,946.65
2023-02-04T01:34:06.336Z,946.54
2023-02-04T01:35:07.262Z,946.61
2023-02-04T01:36:07.878Z,946.55
2023-02-04T01:37:08.137Z,946.53
2023-02-04T01:38:08.730Z,946.59
2023-02-04T01:39:09.223Z,946.61
2023-02-04T01:40:09.433Z,946.64
2023-02-04T01:41:09.665Z,946.59
2023-02-04T01:42:09.883Z,946.56
2023-02-04T01:43:10.835Z,946.59
2023-02-04T01:44:11.411Z,946.6
2023-02-04T01:45:12.330Z,946.69
2023-02-04T01:46:13.339Z,946.6
2023-02-04T01:47:13.702Z,946.6
2023-02-04T01:48:14.441Z,946.61
2023-02-04T01:49:14.732Z,946.63
2023-02-04T01:50:15.365Z,946.67
2023-02-04T01:51:15.471Z,946.59
2023-02-04T01:52:16.377Z,946.66
2023-02-04T01:53:17.017Z,946.6
2023-02-04T01:54:17.216Z,946.69
2023-02-04T01:55:18.121Z,946.74
2023-02-04T01:56:19.050Z,946.66
2023-02-04T01:57:19.241Z,946.61
2023-02-04T01:58:19.579Z,946.64
2023-02-04T01:59:20.237Z,946.59
2023-02-04T02:00:20.429Z,946.64
2023-02-04T02:01:21.266Z,946.63
2023-02-04T02:02:21.429Z,946.73
2023-02-04T02:03:22.257Z,946.68
2023-02-04T02:04:22.894Z,946.66
2023-02-04T02:05:23.170Z,946.61
2023-02-04T02:06:24.097Z,946.58
2023-02-04T02:07:24.739Z,946.64
2023-02-04T02:08:25.158Z,946.7
2023-02-04T02:09:25.551Z,946.54
2023-02-04T02:10:25.837Z,946.74
2023-02-04T02:11:26.162Z,947.01
2023-02-04T02:12:26.359Z,946.78
2023-02-04T02:13:27.028Z,946.72
2023-02-04T02:14:27.591Z,946.77
2023-02-04T02:15:27.776Z,946.73
2023-02-04T02:16:28.043Z,946.8
2023-02-04T02:17:28.846Z,946.88
2023-02-04T02:18:29.886Z,946.73
2023-02-04T02:19:30.077Z,946.92
2023-02-04T02:20:30.646Z,946.79
2023-02-04T02:21:31.023Z,946.73
2023-02-04T02:22:31.233Z,946.78
2023-02-04T02:23:31.459Z,946.84
2023-02-04T02:24:31.671Z,946.86
2023-02-04T02:25:32.151Z,946.85
2023-02-04T02:26:33.093Z,946.86
2023-02-04T02:27:33.304Z,946.85
2023-02-04T02:28:33.551Z,946.89
2023-02-04T02:29:34.099Z,946.88
2023-02-04T02:30:35.252Z,946.89
2023-02-04T02:31:35.280Z,946.94
2023-02-04T02:32:36.162Z,946.96
2023-02-04T02:33:36.523Z,946.95
2023-02-04T02:34:37.003Z,946.9
2023-02-04T02:35:37.225Z,947.01
2023-02-04T02:36:38.250Z,946.95
2023-02-04T02:37:39.165Z,946.88
2023-02-04T02:38:40.195Z,946.88
2023-02-04T02:39:40.821Z,946.93
2023-02-04T02:40:41.824Z,946.86
2023-02-04T02:41:42.310Z,946.91
2023-02-04T02:42:43.214Z,946.93
2023-02-04T02:43:44.151Z,946.84
2023-02-04T02:44:44.734Z,946.91
2023-02-04T02:45:45.003Z,946.89
2023-02-04T02:46:45.863Z,946.92
2023-02-04T02:47:46.173Z,946.88
2023-02-04T02:48:46.887Z,946.96
2023-02-04T02:49:47.510Z,946.84
2023-02-04T02:50:48.132Z,946.96
2023-02-04T02:51:48.774Z,946.9
2023-02-04T02:52:49.268Z,946.92
2023-02-04T02:53:49.893Z,946.99
2023-02-04T02:54:50.531Z,946.94
2023-02-04T02:55:50.873Z,947.02
2023-02-04T02:56:51.362Z,946.99
2023-02-04T02:57:52.008Z,946.95
2023-02-04T02:58:52.342Z,947.09
2023-02-04T02:59:52.937Z,947
2023-02-04T03:00:53.246Z,947.05
2023-02-04T03:01:54.052Z,946.95
2023-02-04T03:02:54.341Z,947.03
2023-02-04T03:03:55.327Z,947.03
2023-02-04T03:04:56.239Z,947.1
2023-02-04T03:05:57.189Z,947.03
2023-02-04T03:06:57.421Z,947.04
2023-02-04T03:07:58.356Z,947.03
2023-02-04T03:08:59.383Z,947.11
2023-02-04T03:09:59.878Z,946.88
2023-02-04T03:11:00.107Z,946.98
2023-02-04T03:12:01.014Z,947.03
2023-02-04T03:13:01.225Z,947
2023-02-04T03:14:02.152Z,947.02
2023-02-04T03:15:02.745Z,946.96
2023-02-04T03:16:03.408Z,946.97
2023-02-04T03:17:03.874Z,947.05
2023-02-04T03:18:04.791Z,947.07
2023-02-04T03:19:05.113Z,947.17
2023-02-04T03:20:06.049Z,947.17
2023-02-04T03:21:06.979Z,947.22
2023-02-04T03:22:07.608Z,947.18
2023-02-04T03:23:07.819Z,947.25
2023-02-04T03:24:08.329Z,947.27
2023-02-04T03:25:08.980Z,947.34
2023-02-04T03:26:09.924Z,947.19
2023-02-04T03:27:10.850Z,947.27
2023-02-04T03:28:11.822Z,947.4
2023-02-04T03:29:12.282Z,947.39
2023-02-04T03:30:12.578Z,947.27
2023-02-04T03:31:13.182Z,947.43
2023-02-04T03:32:13.436Z,947.35
2023-02-04T03:33:14.343Z,947.38
2023-02-04T03:34:14.832Z,947.55
2023-02-04T03:35:15.807Z,947.6
2023-02-04T03:36:16.460Z,947.54
2023-02-04T03:37:16.952Z,947.59
2023-02-04T03:38:19.661Z,947.61
2023-02-04T03:39:18.461Z,947.65
2023-02-04T03:40:19.374Z,947.71
2023-02-04T03:41:19.569Z,947.79
2023-02-04T03:42:19.766Z,947.82
2023-02-04T03:43:20.675Z,947.85
2023-02-04T03:44:20.852Z,947.9
2023-02-04T03:45:21.448Z,947.89
2023-02-04T03:46:22.361Z,947.91
2023-02-04T03:47:22.758Z,947.83
2023-02-04T03:48:23.696Z,947.66
2023-02-04T03:49:24.408Z,947.63
2023-02-04T03:50:24.949Z,947.73
2023-02-04T03:51:25.435Z,947.72
2023-02-04T03:52:25.635Z,947.75
2023-02-04T03:53:25.834Z,947.8
2023-02-04T03:54:26.766Z,947.74
2023-02-04T03:55:27.680Z,947.75
2023-02-04T03:56:27.902Z,947.72
2023-02-04T03:57:28.095Z,947.8
2023-02-04T03:58:28.304Z,947.83
2023-02-04T03:59:28.661Z,947.9
2023-02-04T04:00:29.483Z,947.99
2023-02-04T04:01:29.907Z,948
2023-02-04T04:02:30.111Z,948.07
2023-02-04T04:03:30.949Z,947.97
2023-02-04T04:04:31.885Z,948.11
2023-02-04T04:05:32.549Z,948.19
2023-02-04T04:06:33.225Z,948.11
2023-02-04T04:07:34.147Z,948.05
2023-02-04T04:08:35.062Z,948.07
2023-02-04T04:09:36.072Z,948.31
2023-02-04T04:10:36.422Z,948.1
2023-02-04T04:11:36.583Z,948.11
2023-02-04T04:12:36.799Z,948.12
2023-02-04T04:13:37.715Z,948.14
2023-02-04T04:14:38.675Z,948.1
2023-02-04T04:15:39.297Z,948.06
2023-02-04T04:16:39.656Z,948.21
2023-02-04T04:17:40.141Z,948.26
2023-02-04T04:18:41.057Z,948.25
2023-02-04T04:19:42.072Z,948.29
2023-02-04T04:20:42.577Z,948.33
2023-02-04T04:21:43.479Z,948.46
2023-02-04T04:22:44.150Z,948.34
2023-02-04T04:23:45.051Z,948.3
2023-02-04T04:24:45.242Z,948.21
2023-02-04T04:25:45.894Z,948.26
2023-02-04T04:26:46.234Z,948.34
2023-02-04T04:27:47.227Z,948.3
2023-02-04T04:28:47.893Z,948.33
2023-02-04T04:29:48.325Z,948.31
2023-02-04T04:30:48.900Z,948.29
2023-02-04T04:31:49.496Z,948.33
2023-02-04T04:32:50.037Z,948.35
2023-02-04T04:33:50.950Z,948.33
2023-02-04T04:34:51.604Z,948.34
2023-02-04T04:35:52.526Z,948.36
2023-02-04T04:36:53.162Z,948.39
2023-02-04T04:37:54.093Z,948.46
2023-02-04T04:38:54.316Z,948.46
2023-02-04T04:39:55.053Z,948.43
2023-02-04T04:40:55.721Z,948.53
2023-02-04T04:41:56.654Z,948.47
2023-02-04T04:42:56.861Z,948.47
2023-02-04T04:43:57.094Z,948.49
2023-02-04T04:44:57.312Z,948.45
2023-02-04T04:45:57.896Z,948.54
2023-02-04T04:46:58.601Z,948.56
2023-02-04T04:47:59.568Z,948.58
2023-02-04T04:49:00.491Z,948.62
2023-02-04T04:50:00.777Z,948.69
2023-02-04T04:51:00.974Z,948.63
2023-02-04T04:52:01.512Z,948.67
2023-02-04T04:53:02.428Z,948.58
2023-02-04T04:54:02.774Z,948.56
2023-02-04T04:55:03.707Z,948.58
2023-02-04T04:56:04.630Z,948.56
2023-02-04T04:57:04.871Z,948.55
2023-02-04T04:58:05.791Z,948.56
2023-02-04T04:59:06.411Z,948.58
2023-02-04T05:00:07.453Z,948.52
2023-02-04T05:01:08.100Z,948.5
2023-02-04T05:02:08.283Z,948.58
2023-02-04T05:03:08.629Z,948.51
2023-02-04T05:04:09.542Z,948.58
2023-02-04T05:05:09.834Z,948.59
2023-02-04T05:06:10.094Z,948.59
2023-02-04T05:07:10.985Z,948.64
2023-02-04T05:08:11.924Z,948.59
2023-02-04T05:09:12.863Z,948.57
2023-02-04T05:10:13.921Z,948.54
2023-02-04T05:11:14.540Z,948.63
2023-02-04T05:12:14.690Z,948.62
2023-02-04T05:13:15.094Z,948.68
2023-02-04T05:14:15.293Z,948.66
2023-02-04T05:15:15.803Z,948.67
2023-02-04T05:16:16.480Z,948.72
2023-02-04T05:17:16.991Z,948.68
2023-02-04T05:18:17.617Z,948.81
2023-02-04T05:19:17.835Z,948.75
2023-02-04T05:20:18.886Z,948.74
2023-02-04T05:21:19.235Z,948.87
2023-02-04T05:22:19.891Z,948.79
2023-02-04T05:23:20.102Z,948.79
2023-02-04T05:24:20.592Z,948.83
2023-02-04T05:25:20.793Z,948.77
2023-02-04T05:26:29.738Z,948.89
2023-02-04T05:27:21.292Z,948.86
2023-02-04T05:28:22.204Z,948.87
2023-02-04T05:29:22.715Z,948.9
2023-02-04T05:30:23.740Z,948.88
2023-02-04T05:31:24.245Z,948.89
2023-02-04T05:32:24.462Z,948.93
2023-02-04T05:33:24.960Z,948.85
2023-02-04T05:34:25.870Z,948.92
2023-02-04T05:35:26.487Z,948.79
2023-02-04T05:36:27.423Z,948.89
2023-02-04T05:37:28.353Z,948.86
2023-02-04T05:38:29.310Z,948.96
2023-02-04T05:39:29.790Z,948.88
2023-02-04T05:40:30.278Z,948.98
2023-02-04T05:41:30.636Z,948.98
2023-02-04T05:42:30.849Z,949.02
2023-02-04T05:43:31.818Z,948.98
2023-02-04T05:44:32.737Z,949.05
2023-02-04T05:45:33.853Z,949.05
2023-02-04T05:46:34.728Z,949.09
2023-02-04T05:47:34.985Z,949.05
2023-02-04T05:48:35.304Z,949.04
2023-02-04T05:49:35.524Z,949.05
2023-02-04T05:50:36.553Z,949.09
2023-02-04T05:51:37.470Z,949.14
2023-02-04T05:52:38.389Z,949.11
2023-02-04T05:53:38.875Z,949.17
2023-02-04T05:54:39.784Z,949.16
2023-02-04T05:55:40.702Z,949.16
2023-02-04T05:56:41.200Z,949.2
2023-02-04T05:57:41.396Z,949.2
2023-02-04T05:58:41.603Z,949.23
2023-02-04T05:59:42.226Z,949.18
2023-02-04T06:00:42.408Z,949.24
2023-02-04T06:01:43.015Z,949.22
2023-02-04T06:02:43.359Z,949.22
2023-02-04T06:03:44.435Z,949.22
2023-02-04T06:04:45.023Z,949.22
2023-02-04T06:05:44.972Z,949.2
2023-02-04T06:06:45.623Z,949.21
2023-02-04T06:07:45.815Z,949.28
2023-02-04T06:08:46.454Z,949.22
2023-02-04T06:09:46.739Z,949.28
2023-02-04T06:10:46.974Z,949.31
2023-02-04T06:11:47.879Z,949.29
2023-02-04T06:12:48.825Z,949.3
2023-02-04T06:13:49.333Z,949.33
2023-02-04T06:14:49.523Z,949.34
2023-02-04T06:15:50.169Z,949.32
2023-02-04T06:16:50.855Z,949.34
2023-02-04T06:17:51.341Z,949.36
2023-02-04T06:18:51.607Z,949.38
2023-02-04T06:19:52.536Z,949.41
2023-02-04T06:20:52.862Z,949.39
2023-02-04T06:21:53.348Z,949.41
2023-02-04T06:22:53.577Z,949.44
2023-02-04T06:23:54.487Z,949.46
2023-02-04T06:24:54.976Z,949.53
2023-02-04T06:25:55.227Z,949.5
2023-02-04T06:26:55.583Z,949.53
2023-02-04T06:27:56.582Z,949.5
2023-02-04T06:28:56.834Z,949.53
2023-02-04T06:29:57.045Z,949.56
2023-02-04T06:30:57.332Z,949.53
2023-02-04T06:31:57.733Z,949.58
2023-02-04T06:32:58.413Z,949.61
2023-02-04T06:33:58.619Z,949.66
2023-02-04T06:34:58.813Z,949.65
2023-02-04T06:35:59.003Z,949.69
2023-02-04T06:36:59.938Z,949.67
2023-02-04T06:38:00.852Z,949.65
2023-02-04T06:39:01.336Z,949.69
2023-02-04T06:40:01.852Z,949.73
2023-02-04T06:41:02.316Z,949.7
2023-02-04T06:42:03.225Z,949.75
2023-02-04T06:43:04.522Z,949.78
2023-02-04T06:44:04.499Z,949.78
2023-02-04T06:45:05.121Z,949.83
2023-02-04T06:46:05.372Z,949.82
2023-02-04T06:47:06.388Z,949.89
2023-02-04T06:48:06.620Z,949.9
2023-02-04T06:49:07.248Z,949.96
2023-02-04T06:50:07.894Z,950.01
2023-02-04T06:51:08.158Z,949.96
2023-02-04T06:52:09.124Z,949.99
2023-02-04T06:53:10.066Z,950.09
2023-02-04T06:54:10.296Z,950.12
2023-02-04T06:55:11.214Z,950.09
2023-02-04T06:56:11.427Z,950
2023-02-04T06:57:12.069Z,950.03
2023-02-04T06:58:12.688Z,950.09
2023-02-04T06:59:13.634Z,950.16
2023-02-04T07:00:14.130Z,950.21
2023-02-04T07:01:14.340Z,950.17
2023-02-04T07:02:15.380Z,950.2
2023-02-04T07:03:15.785Z,950.22
2023-02-04T07:04:16.428Z,950.2
2023-02-04T07:05:17.357Z,950.23
2023-02-04T07:06:18.289Z,950.25
2023-02-04T07:07:18.505Z,950.19
2023-02-04T07:08:18.860Z,950.21
2023-02-04T07:09:19.054Z,950.32
2023-02-04T07:10:19.265Z,950.42
2023-02-04T07:11:19.420Z,950.47
2023-02-04T07:12:19.639Z,950.44
2023-02-04T07:13:20.558Z,950.42
2023-02-04T07:14:21.180Z,950.42
2023-02-04T07:15:21.685Z,950.52
2023-02-04T07:16:22.199Z,950.49
2023-02-04T07:17:22.779Z,950.54
2023-02-04T07:18:23.704Z,950.59
2023-02-04T07:19:24.619Z,950.58
2023-02-04T07:20:24.815Z,950.58
2023-02-04T07:21:24.955Z,950.6
2023-02-04T07:22:25.605Z,950.58
2023-02-04T07:23:25.817Z,950.64
2023-02-04T07:24:26.781Z,950.64
2023-02-04T07:25:27.439Z,950.67
2023-02-04T07:26:27.933Z,950.69
2023-02-04T07:27:28.556Z,950.69
2023-02-04T07:28:28.869Z,950.65
2023-02-04T07:29:29.777Z,950.69
2023-02-04T07:30:30.958Z,950.65
2023-02-04T07:31:31.072Z,950.7
2023-02-04T07:32:31.280Z,950.67
2023-02-04T07:33:31.633Z,950.73
2023-02-04T07:34:32.562Z,950.71
2023-02-04T07:35:32.767Z,950.78
2023-02-04T07:36:33.709Z,950.78
2023-02-04T07:37:34.424Z,950.77
2023-02-04T07:38:34.907Z,950.81
2023-02-04T07:39:35.544Z,950.81
2023-02-04T07:40:36.240Z,950.86
2023-02-04T07:41:36.906Z,950.88
2023-02-04T07:42:37.810Z,950.92
2023-02-04T07:43:38.303Z,950.95
2023-02-04T07:44:38.506Z,950.94
2023-02-04T07:45:39.149Z,950.94
2023-02-04T07:46:39.530Z,950.96
2023-02-04T07:47:40.146Z,950.96
2023-02-04T07:48:41.059Z,950.99
2023-02-04T07:49:41.970Z,951
2023-02-04T07:50:42.878Z,950.98
2023-02-04T07:51:43.880Z,951
2023-02-04T07:52:44.791Z,950.96
2023-02-04T07:53:45.014Z,950.97
2023-02-04T07:54:45.937Z,950.97
2023-02-04T07:55:46.563Z,950.96
2023-02-04T07:56:46.843Z,950.99
2023-02-04T07:57:47.495Z,951
2023-02-04T07:58:48.428Z,950.96
2023-02-04T07:59:48.816Z,951
2023-02-04T08:00:49.112Z,951
2023-02-04T08:01:50.132Z,951
2023-02-04T08:02:50.944Z,951.04
2023-02-04T08:03:51.871Z,951.01
2023-02-04T08:04:52.393Z,951.02
2023-02-04T08:05:53.297Z,950.94
2023-02-04T08:06:53.523Z,950.92
2023-02-04T08:07:53.738Z,950.91
2023-02-04T08:08:53.965Z,950.92
2023-02-04T08:09:54.918Z,950.88
2023-02-04T08:10:57.204Z,950.94
2023-02-04T08:11:56.321Z,950.96
2023-02-04T08:12:56.541Z,950.99
2023-02-04T08:13:57.480Z,951
2023-02-04T08:14:58.404Z,951.02
2023-02-04T08:15:58.707Z,951.03
2023-02-04T08:16:59.115Z,951.07
2023-02-04T08:17:59.754Z,951.12
2023-02-04T08:18:59.962Z,951.12
2023-02-04T08:20:01.088Z,951.12
2023-02-04T08:21:01.292Z,951.11
2023-02-04T08:22:02.170Z,951.13
2023-02-04T08:23:02.395Z,951.08
2023-02-04T08:24:02.600Z,951.09
2023-02-04T08:25:03.231Z,951.17
2023-02-04T08:26:03.437Z,951.15
2023-02-04T08:27:03.640Z,951.18
2023-02-04T08:28:04.631Z,951.2
2023-02-04T08:29:04.895Z,951.2
2023-02-04T08:30:05.814Z,951.19
2023-02-04T08:31:07.061Z,951.23
2023-02-04T08:32:07.449Z,951.19
2023-02-04T08:33:08.038Z,951.17
2023-02-04T08:34:08.961Z,951.16
2023-02-04T08:35:09.175Z,951.18
2023-02-04T08:36:09.815Z,951.15
2023-02-04T08:37:10.011Z,951.15
2023-02-04T08:38:10.110Z,951.18
2023-02-04T08:39:10.925Z,951.15
2023-02-04T08:40:11.853Z,951.21
2023-02-04T08:41:12.932Z,951.2
2023-02-04T08:42:13.992Z,951.2
2023-02-04T08:43:14.197Z,951.22
2023-02-04T08:44:15.155Z,951.24
2023-02-04T08:45:16.101Z,951.28
2023-02-04T08:46:16.359Z,951.28
2023-02-04T08:47:16.687Z,951.31
2023-02-04T08:48:17.267Z,951.31
2023-02-04T08:49:17.475Z,951.31
2023-02-04T08:50:18.129Z,951.34
2023-02-04T08:51:18.630Z,951.31
2023-02-04T08:52:19.675Z,951.33
2023-02-04T08:53:19.894Z,951.35
2023-02-04T08:54:20.104Z,951.33
2023-02-04T08:55:20.745Z,951.3
2023-02-04T08:56:20.964Z,951.29
2023-02-04T08:57:21.740Z,951.27
2023-02-04T08:58:22.678Z,951.28
2023-02-04T08:59:23.607Z,951.27
2023-02-04T09:00:24.340Z,951.28
2023-02-04T09:01:24.924Z,951.32
2023-02-04T09:02:25.326Z,951.29
2023-02-04T09:03:25.932Z,951.31
2023-02-04T09:04:26.121Z,951.34
2023-02-04T09:05:26.483Z,951.36
2023-02-04T09:06:26.983Z,951.43
2023-02-04T09:07:27.943Z,951.4
2023-02-04T09:08:28.864Z,951.43
2023-02-04T09:09:29.078Z,951.51
2023-02-04T09:10:29.824Z,951.47
2023-02-04T09:11:29.975Z,951.49
2023-02-04T09:12:30.976Z,951.46
2023-02-04T09:13:31.636Z,951.45
2023-02-04T09:14:31.850Z,951.5
2023-02-04T09:15:32.775Z,951.55
2023-02-04T09:16:33.129Z,951.51
2023-02-04T09:17:33.670Z,951.51
2023-02-04T09:18:34.255Z,951.55
2023-02-04T09:19:34.464Z,951.58
2023-02-04T09:20:35.396Z,951.57
2023-02-04T09:21:36.016Z,951.62
2023-02-04T09:22:37.102Z,951.6
2023-02-04T09:23:38.024Z,951.61
2023-02-04T09:24:38.224Z,951.59
2023-02-04T09:25:38.464Z,951.58
2023-02-04T09:26:39.406Z,951.6
2023-02-04T09:27:39.919Z,951.54
2023-02-04T09:28:40.274Z,951.55
2023-02-04T09:29:40.779Z,951.62
2023-02-04T09:30:41.777Z,951.6
2023-02-04T09:31:42.408Z,951.64
2023-02-04T09:32:43.257Z,951.6
2023-02-04T09:33:43.864Z,951.6
2023-02-04T09:34:44.366Z,951.59
2023-02-04T09:35:45.011Z,951.56
2023-02-04T09:36:45.670Z,951.56
2023-02-04T09:37:46.645Z,951.61
2023-02-04T09:38:47.594Z,951.57
2023-02-04T09:39:47.794Z,951.57
2023-02-04T09:40:48.000Z,951.54
2023-02-04T09:41:48.645Z,951.6
2023-02-04T09:42:49.696Z,951.58
2023-02-04T09:43:50.221Z,951.62
2023-02-04T09:44:51.161Z,951.64
2023-02-04T09:45:51.403Z,951.62
2023-02-04T09:46:51.926Z,951.66
2023-02-04T09:47:52.761Z,951.65
2023-02-04T09:48:52.978Z,951.65
2023-02-04T09:49:53.908Z,951.62
2023-02-04T09:50:54.192Z,951.62
2023-02-04T09:51:54.543Z,951.6
2023-02-04T09:52:55.282Z,951.66
2023-02-04T09:53:55.503Z,951.68
2023-02-04T09:54:56.415Z,951.71
2023-02-04T09:55:57.334Z,951.68
2023-02-04T09:56:57.688Z,951.7
2023-02-04T09:57:58.602Z,951.64
2023-02-04T09:58:59.229Z,951.7
2023-02-04T10:00:00.202Z,951.7
2023-02-04T10:01:00.554Z,951.7
2023-02-04T10:02:01.584Z,951.7
2023-02-04T10:03:01.921Z,951.71
2023-02-04T10:04:02.782Z,951.64
2023-02-04T10:05:03.035Z,951.68
2023-02-04T10:06:03.987Z,951.65
2023-02-04T10:07:05.020Z,951.69
2023-02-04T10:08:05.932Z,951.68
2023-02-04T10:09:06.328Z,951.66
2023-02-04T10:10:06.828Z,951.67
2023-02-04T10:11:07.033Z,951.68
2023-02-04T10:12:07.954Z,951.69
2023-02-04T10:13:08.527Z,951.64
2023-02-04T10:14:08.735Z,951.67
2023-02-04T10:15:09.669Z,951.63
2023-02-04T10:16:10.617Z,951.64
2023-02-04T10:17:11.426Z,951.69
2023-02-04T10:18:12.100Z,951.66
2023-02-04T10:19:12.671Z,951.65
2023-02-04T10:20:12.892Z,951.67
2023-02-04T10:21:13.577Z,951.64
2023-02-04T10:22:14.491Z,951.66
2023-02-04T10:23:15.263Z,951.65
2023-02-04T10:24:15.474Z,951.65
2023-02-04T10:25:16.483Z,951.65
2023-02-04T10:26:17.416Z,951.64
2023-02-04T10:27:18.476Z,951.65
2023-02-04T10:28:19.035Z,951.61
2023-02-04T10:29:19.962Z,951.61
2023-02-04T10:30:20.454Z,951.6
2023-02-04T10:31:20.517Z,951.64
2023-02-04T10:32:20.815Z,951.61
2023-02-04T10:33:21.143Z,951.68
2023-02-04T10:34:22.005Z,951.64
2023-02-04T10:35:22.207Z,951.67
2023-02-04T10:36:22.707Z,951.67
2023-02-04T10:37:23.633Z,951.64
2023-02-04T10:38:24.550Z,951.63
2023-02-04T10:39:25.261Z,951.69
2023-02-04T10:40:25.474Z,951.65
2023-02-04T10:41:25.814Z,951.69
2023-02-04T10:42:26.010Z,951.68
2023-02-04T10:43:26.347Z,951.68
2023-02-04T10:44:26.993Z,951.69
2023-02-04T10:45:27.349Z,951.64
2023-02-04T10:46:28.004Z,951.68
2023-02-04T10:47:28.707Z,951.66
2023-02-04T10:48:28.938Z,951.65
2023-02-04T10:49:29.543Z,951.61
2023-02-04T10:50:30.703Z,951.62
2023-02-04T10:51:31.458Z,951.63
2023-02-04T10:52:32.312Z,951.62
2023-02-04T10:53:33.040Z,951.62
2023-02-04T10:54:33.240Z,951.53
2023-02-04T10:55:33.492Z,951.58
2023-02-04T10:56:33.691Z,951.53
2023-02-04T10:57:34.621Z,951.52
2023-02-04T10:58:35.558Z,951.54
2023-02-04T10:59:36.209Z,951.52
2023-02-04T11:00:36.853Z,951.51
2023-02-04T11:01:37.119Z,951.52
2023-02-04T11:02:37.502Z,951.55
2023-02-04T11:03:38.525Z,951.53
2023-02-04T11:04:38.828Z,951.56
2023-02-04T11:05:39.038Z,951.55
2023-02-04T11:06:39.409Z,951.57
2023-02-04T11:07:40.331Z,951.58
2023-02-04T11:08:41.307Z,951.57
2023-02-04T11:09:42.226Z,951.53
2023-02-04T11:10:43.233Z,951.52
2023-02-04T11:11:44.152Z,951.47
2023-02-04T11:12:45.077Z,951.5
2023-02-04T11:13:45.352Z,951.49
2023-02-04T11:14:45.582Z,951.5
2023-02-04T11:15:46.156Z,951.5
2023-02-04T11:16:46.737Z,951.51
2023-02-04T11:17:46.930Z,951.53
2023-02-04T11:18:47.165Z,951.54
2023-02-04T11:19:47.756Z,951.56
2023-02-04T11:20:48.812Z,951.56
2023-02-04T11:21:49.023Z,951.54
2023-02-04T11:22:49.221Z,951.56
2023-02-04T11:23:49.624Z,951.52
2023-02-04T11:24:50.264Z,951.54
2023-02-04T11:25:51.179Z,951.56
2023-02-04T11:26:51.777Z,951.53
2023-02-04T11:27:51.757Z,951.55
2023-02-04T11:28:52.713Z,951.54
2023-02-04T11:29:53.630Z,951.54
2023-02-04T11:30:54.632Z,951.56
2023-02-04T11:31:54.862Z,951.59
2023-02-04T11:32:55.049Z,951.62
2023-02-04T11:33:55.867Z,951.61
2023-02-04T11:34:56.454Z,951.63
2023-02-04T11:35:56.700Z,951.59
2023-02-04T11:36:56.976Z,951.61
2023-02-04T11:37:57.197Z,951.61
2023-02-04T11:38:58.118Z,951.66
2023-02-04T11:39:58.605Z,951.62
2023-02-04T11:40:59.637Z,951.61
2023-02-04T11:41:59.990Z,951.59
2023-02-04T11:43:00.190Z,951.59
2023-02-04T11:44:01.234Z,951.64
2023-02-04T11:45:01.438Z,951.67
2023-02-04T11:46:01.678Z,951.67
2023-02-04T11:47:02.524Z,951.69
2023-02-04T11:48:03.188Z,951.67
2023-02-04T11:49:03.429Z,951.69
2023-02-04T11:50:04.023Z,951.69
2023-02-04T11:51:05.075Z,951.67
2023-02-04T11:52:05.723Z,951.69
2023-02-04T11:53:06.879Z,951.67
2023-02-04T11:54:06.913Z,951.68
2023-02-04T11:55:07.901Z,951.68
2023-02-04T11:56:08.837Z,951.69
2023-02-04T11:57:09.387Z,951.71
2023-02-04T11:58:10.018Z,951.74
2023-02-04T11:59:10.725Z,951.7
2023-02-04T12:00:10.929Z,951.74
2023-02-04T12:01:11.463Z,951.75
2023-02-04T12:02:12.230Z,951.76
2023-02-04T12:03:12.282Z,951.76
2023-02-04T12:04:13.291Z,951.73
2023-02-04T12:05:13.873Z,951.72
2023-02-04T12:06:14.363Z,951.73
2023-02-04T12:07:14.561Z,951.71
2023-02-04T12:08:15.542Z,951.73
2023-02-04T12:09:15.756Z,951.74
2023-02-04T12:10:16.389Z,951.69
2023-02-04T12:11:16.595Z,951.74
2023-02-04T12:12:16.784Z,951.68
2023-02-04T12:13:17.683Z,951.72
2023-02-04T12:14:18.005Z,951.71
2023-02-04T12:15:18.363Z,951.64
2023-02-04T12:16:19.352Z,951.62
2023-02-04T12:17:20.139Z,951.62
2023-02-04T12:18:20.391Z,951.63
2023-02-04T12:19:20.635Z,951.62
2023-02-04T12:20:20.761Z,951.55
2023-02-04T12:21:21.102Z,951.59
2023-02-04T12:22:21.746Z,951.57
2023-02-04T12:23:22.667Z,951.53
2023-02-04T12:24:23.736Z,951.52
2023-02-04T12:25:23.980Z,951.54
2023-02-04T12:26:24.762Z,951.52
2023-02-04T12:27:25.254Z,951.51
2023-02-04T12:28:25.493Z,951.51
2023-02-04T12:29:26.407Z,951.56
2023-02-04T12:30:27.052Z,951.58
2023-02-04T12:31:27.474Z,951.57
2023-02-04T12:32:28.335Z,951.54
2023-02-04T12:33:28.832Z,951.56
2023-02-04T12:34:29.575Z,951.54
2023-02-04T12:35:30.439Z,951.54
2023-02-04T12:36:30.558Z,951.57
2023-02-04T12:37:31.518Z,951.58
2023-02-04T12:38:31.719Z,951.55